Weather History for Albertville, AL

Change the Weather History Date:

Monday, December 3, 2012

  Actual Average (KGAD) Record (KGAD)
Temperature  
Mean Temperature 60 °F -  
Max Temperature 71 °F 55 °F 76 °F (1933)
Min Temperature 50 °F 33 °F 15 °F (1944)
Degree Days  
Heating Degree Days 4    
Growing Degree Days 10 (Base 50)    
Moisture  
Dew Point 50 °F    
Average Humidity 70    
Maximum Humidity 100    
Minimum Humidity 43    
Precipitation  
Precipitation 0.00 in - - ()
Sea Level Pressure  
Sea Level Pressure 30.24 in    
Wind  
Wind Speed 6 mph (SSE)    
Max Wind Speed 12 mph    
Max Gust Speed 16 mph    
Visibility 10 miles    
Events      
Averages and records for this station are not official NWS values.
T = Trace of Precipitation, MM = Missing Value Source: NWS Daily Summary

Daily Weather History Graph

Daily Weather History Graph

Search for Another Location

Airport:

Trip Planner

Search our weather history database for the weather conditions in past years. The results will help you decide how hot, cold, wet, or windy it might be!

Date:

Astronomy

Dec. 03, 2012 Rise Set
Actual Time 6:34 AM CST 4:35 PM CST
Civil Twilight 6:07 AM CST 5:02 PM CST
Nautical Twilight 5:36 AM CST 5:33 PM CST
Astronomical Twilight 5:05 AM CST 6:04 PM CST
Moon 9:14 PM CST (12/3) 10:03 AM CST (12/3)
Length of Visible Light 10h 55m
Length of Day
10h 00m
Waning Gibbous, 78% of the Moon is Illuminated
Dec 3
Waning Gibbous
Dec 6
Last Quarter
Dec 13
New
Dec 19
First Quarter
Dec 28
Full

Hourly Weather History & Observations

Time (CST) Temp. Dew Point Humidity Pressure Visibility Wind Dir Wind Speed Gust Speed Precip Events Conditions
12:15 AM 57.2 °F 46.4 °F 67% 30.26 in 10.0 mi SSE 6.9 mph - N/A   Unknown
12:35 AM 57.2 °F 46.4 °F 67% 30.26 in 10.0 mi SSE 5.8 mph - N/A   Unknown
12:55 AM 55.4 °F 46.4 °F 72% 30.26 in 10.0 mi SSE 6.9 mph - N/A   Unknown
1:15 AM 55.4 °F 46.4 °F 72% 30.25 in 10.0 mi SSE 6.9 mph - N/A   Unknown
1:35 AM 55.4 °F 46.4 °F 72% 30.26 in 10.0 mi SSE 6.9 mph - N/A   Unknown
1:55 AM 55.4 °F 46.4 °F 72% 30.26 in 10.0 mi SSE 6.9 mph - N/A   Unknown
2:15 AM 55.4 °F 48.2 °F 77% 30.26 in 10.0 mi SSE 6.9 mph - N/A   Unknown
2:35 AM 55.4 °F 48.2 °F 77% 30.25 in 10.0 mi SSE 6.9 mph - N/A   Unknown
2:55 AM 55.4 °F 48.2 °F 77% 30.25 in 10.0 mi SSE 6.9 mph - N/A   Unknown
3:15 AM 55.4 °F 48.2 °F 77% 30.25 in 10.0 mi SSE 5.8 mph - N/A   Unknown
3:35 AM 53.6 °F 48.2 °F 82% 30.25 in 10.0 mi SE 4.6 mph - N/A   Unknown
3:55 AM 53.6 °F 48.2 °F 82% 30.25 in 10.0 mi SE 5.8 mph - N/A   Unknown
4:15 AM 53.6 °F 48.2 °F 82% 30.25 in 10.0 mi SE 5.8 mph - N/A   Unknown
4:55 AM 50.0 °F 50.0 °F 100% 30.26 in 10.0 mi Calm Calm - N/A   Unknown
5:15 AM 51.8 °F 51.8 °F 100% 30.26 in 10.0 mi SE 3.5 mph - N/A   Unknown
5:35 AM 51.8 °F 51.8 °F 100% 30.27 in 10.0 mi SE 4.6 mph - N/A   Unknown
5:55 AM 51.8 °F 51.8 °F 100% 30.27 in 10.0 mi SE 5.8 mph - N/A   Unknown
6:15 AM 51.8 °F 51.8 °F 100% 30.27 in 10.0 mi SE 5.8 mph - N/A   Unknown
6:35 AM 51.8 °F 51.8 °F 100% 30.28 in 10.0 mi SE 5.8 mph - N/A   Unknown
6:55 AM 51.8 °F 51.8 °F 100% 30.28 in 10.0 mi SE 5.8 mph - N/A   Unknown
7:15 AM 51.8 °F 51.8 °F 100% 30.28 in 10.0 mi ESE 5.8 mph - N/A   Unknown
7:35 AM 53.6 °F 53.6 °F 100% 30.28 in 10.0 mi SE 5.8 mph - N/A   Unknown
7:55 AM 55.4 °F 50.0 °F 82% 30.28 in 10.0 mi SE 5.8 mph - N/A   Unknown
8:15 AM 57.2 °F 50.0 °F 77% 30.29 in 10.0 mi SE 4.6 mph - N/A   Unknown
8:35 AM 59.0 °F 50.0 °F 72% 30.29 in 10.0 mi SE 4.6 mph - N/A   Unknown
8:55 AM 62.6 °F 51.8 °F 68% 30.29 in 10.0 mi SSE 4.6 mph - N/A   Unknown
9:15 AM 62.6 °F 53.6 °F 72% 30.29 in 10.0 mi South 5.8 mph - N/A   Unknown
9:35 AM 64.4 °F 53.6 °F 68% 30.30 in 10.0 mi South 5.8 mph - N/A   Unknown
9:55 AM 64.4 °F 53.6 °F 68% 30.29 in 10.0 mi South 6.9 mph - N/A   Unknown
10:15 AM 66.2 °F 53.6 °F 64% 30.29 in 10.0 mi South 8.1 mph - N/A   Unknown
10:55 AM 68.0 °F 51.8 °F 56% 30.27 in 10.0 mi SSW 8.1 mph - N/A   Unknown
11:15 AM 68.0 °F 51.8 °F 56% 30.26 in 10.0 mi South 9.2 mph - N/A   Unknown
11:35 AM 68.0 °F 51.8 °F 56% 30.25 in 10.0 mi South 11.5 mph - N/A   Unknown
11:55 AM 69.8 °F 50.0 °F 49% 30.24 in 10.0 mi South 11.5 mph - N/A   Unknown
12:15 PM 69.8 °F 50.0 °F 49% 30.23 in 10.0 mi South 10.4 mph 16.1 mph N/A   Unknown
12:35 PM 69.8 °F 50.0 °F 49% 30.23 in 10.0 mi South 11.5 mph 16.1 mph N/A   Unknown
12:55 PM 69.8 °F 50.0 °F 49% 30.22 in 10.0 mi South 10.4 mph - N/A   Unknown
1:15 PM 69.8 °F 50.0 °F 49% 30.21 in 10.0 mi SSW 10.4 mph - N/A   Unknown
1:35 PM 71.6 °F 50.0 °F 46% 30.21 in 10.0 mi South 10.4 mph 16.1 mph N/A   Unknown
1:55 PM 69.8 °F 50.0 °F 49% 30.20 in 10.0 mi South 8.1 mph - N/A   Unknown
2:15 PM 69.8 °F 48.2 °F 46% 30.20 in 10.0 mi South 9.2 mph - N/A   Unknown
2:35 PM 69.8 °F 48.2 °F 46% 30.19 in 10.0 mi South 8.1 mph - N/A   Unknown
2:55 PM 69.8 °F 48.2 °F 46% 30.20 in 10.0 mi South 5.8 mph - N/A   Unknown
3:15 PM 69.8 °F 48.2 °F 46% 30.20 in 10.0 mi SSW 5.8 mph - N/A   Unknown
3:35 PM 69.8 °F 46.4 °F 43% 30.20 in 10.0 mi SSW 9.2 mph - N/A   Unknown
3:55 PM 68.0 °F 48.2 °F 49% 30.20 in 10.0 mi South 6.9 mph - N/A   Unknown
4:15 PM 68.0 °F 50.0 °F 52% 30.20 in 10.0 mi South 5.8 mph - N/A   Unknown
4:35 PM 66.2 °F 50.0 °F 56% 30.21 in 10.0 mi South 6.9 mph - N/A   Unknown
4:55 PM 66.2 °F 50.0 °F 56% 30.20 in 10.0 mi South 4.6 mph - N/A   Unknown
5:15 PM 64.4 °F 50.0 °F 59% 30.21 in 10.0 mi South 3.5 mph - N/A   Unknown
5:55 PM 62.6 °F 50.0 °F 63% 30.21 in 10.0 mi SSE 3.5 mph - N/A   Unknown
6:15 PM 62.6 °F 50.0 °F 63% 30.22 in 10.0 mi SSE 4.6 mph - N/A   Unknown
6:55 PM 60.8 °F 50.0 °F 68% 30.22 in 10.0 mi SSE 5.8 mph - N/A   Unknown
7:15 PM 60.8 °F 50.0 °F 68% 30.22 in 10.0 mi SSE 4.6 mph - N/A   Unknown
7:35 PM 60.8 °F 50.0 °F 68% 30.22 in 10.0 mi SSE 6.9 mph - N/A   Unknown
7:55 PM 60.8 °F 50.0 °F 68% 30.22 in 10.0 mi SSE 5.8 mph - N/A   Unknown
8:15 PM 60.8 °F 50.0 °F 68% 30.21 in 10.0 mi SSE 5.8 mph - N/A   Unknown
8:35 PM 60.8 °F 51.8 °F 72% 30.21 in 10.0 mi SSE 5.8 mph - N/A   Unknown
8:55 PM 60.8 °F 51.8 °F 72% 30.21 in 10.0 mi SSE 3.5 mph - N/A   Unknown
9:15 PM 60.8 °F 51.8 °F 72% 30.21 in 10.0 mi SSE 4.6 mph - N/A   Unknown
9:35 PM 60.8 °F 51.8 °F 72% 30.21 in 10.0 mi SSE 4.6 mph - N/A   Unknown
9:55 PM 59.0 °F 51.8 °F 77% 30.21 in 10.0 mi SSE 4.6 mph - N/A   Unknown
10:15 PM 59.0 °F 51.8 °F 77% 30.21 in 10.0 mi SSE 4.6 mph - N/A   Unknown
10:35 PM 59.0 °F 51.8 °F 77% 30.22 in 10.0 mi SSE 4.6 mph - N/A   Unknown
10:55 PM 59.0 °F 51.8 °F 77% 30.22 in 10.0 mi SSE 4.6 mph - N/A   Unknown
11:15 PM 59.0 °F 51.8 °F 77% 30.21 in 10.0 mi SSE 5.8 mph - N/A   Unknown
11:35 PM 59.0 °F 51.8 °F 77% 30.22 in 10.0 mi SE 5.8 mph - N/A   Unknown
11:55 PM 59.0 °F 51.8 °F 77% 30.21 in 10.0 mi SSE 5.8 mph - N/A   Unknown